createdAt,value
2023-01-26T00:01:10.471Z,5.83
2023-01-26T00:03:36.901Z,5.91
2023-01-26T00:06:04.441Z,6.05
2023-01-26T00:08:31.355Z,5.74
2023-01-26T00:10:57.947Z,5.97
2023-01-26T00:13:24.516Z,6.03
2023-01-26T00:15:51.354Z,5.84
2023-01-26T00:18:18.040Z,5.48
2023-01-26T00:20:45.008Z,5.98
2023-01-26T00:23:11.850Z,5.74
2023-01-26T00:25:40.227Z,5.70
2023-01-26T00:28:06.731Z,5.94
2023-01-26T00:30:33.450Z,5.98
2023-01-26T00:32:59.987Z,5.93
2023-01-26T00:35:26.516Z,5.85
2023-01-26T00:37:54.744Z,5.65
2023-01-26T00:40:21.438Z,5.81
2023-01-26T00:42:47.959Z,5.90
2023-01-26T00:45:14.446Z,6.00
2023-01-26T00:47:42.402Z,6.17
2023-01-26T00:50:09.843Z,6.06
2023-01-26T00:52:36.677Z,6.10
2023-01-26T00:55:03.636Z,5.77
2023-01-26T00:57:30.479Z,6.09
2023-01-26T00:59:56.854Z,5.81
2023-01-26T01:02:23.253Z,5.52
2023-01-26T01:04:49.667Z,5.80
2023-01-26T01:07:16.090Z,5.97
2023-01-26T01:09:42.412Z,6.24
2023-01-26T01:12:08.756Z,6.05
2023-01-26T01:14:35.450Z,6.23
2023-01-26T01:17:01.939Z,5.77
2023-01-26T01:19:28.684Z,5.53
2023-01-26T01:21:55.682Z,5.68
2023-01-26T01:24:22.504Z,6.11
2023-01-26T01:26:49.035Z,6.31
2023-01-26T01:29:15.515Z,6.09
2023-01-26T01:31:43.165Z,5.70
2023-01-26T01:34:09.960Z,5.78
2023-01-26T01:36:36.451Z,5.89
2023-01-26T01:39:03.060Z,6.19
2023-01-26T01:41:29.533Z,6.03
2023-01-26T01:44:14.337Z,6.32
2023-01-26T01:46:45.105Z,6.63
2023-01-26T01:49:11.367Z,6.62
2023-01-26T01:51:41.771Z,5.89
2023-01-26T01:54:11.878Z,6.20
2023-01-26T01:56:39.917Z,6.26
2023-01-26T01:59:07.848Z,6.14
2023-01-26T02:01:34.570Z,5.94
2023-01-26T02:04:02.361Z,6.24
2023-01-26T02:06:33.993Z,6.23
2023-01-26T02:09:00.852Z,6.29
2023-01-26T02:11:27.374Z,6.26
2023-01-26T02:13:54.442Z,6.15
2023-01-26T02:16:21.093Z,6.19
2023-01-26T02:18:47.879Z,6.17
2023-01-26T02:21:17.414Z,6.40
2023-01-26T02:23:52.807Z,5.97
2023-01-26T02:26:27.489Z,5.85
2023-01-26T02:28:54.373Z,5.45
2023-01-26T02:31:23.422Z,5.94
2023-01-26T02:33:50.068Z,6.17
2023-01-26T02:36:24.578Z,6.20
2023-01-26T02:38:55.953Z,6.24
2023-01-26T02:41:41.482Z,6.38
2023-01-26T02:44:09.532Z,6.49
2023-01-26T02:46:36.059Z,6.24
2023-01-26T02:49:21.472Z,6.77
2023-01-26T02:51:47.788Z,6.51
2023-01-26T02:54:34.097Z,6.72
2023-01-26T02:57:00.712Z,6.25
2023-01-26T02:59:27.102Z,6.37
2023-01-26T03:01:55.572Z,6.62
2023-01-26T03:04:22.315Z,6.11
2023-01-26T03:06:48.622Z,6.18
2023-01-26T03:09:14.953Z,6.74
2023-01-26T03:11:44.258Z,6.62
2023-01-26T03:14:11.969Z,6.31
2023-01-26T03:16:39.075Z,6.55
2023-01-26T03:19:24.533Z,6.41
2023-01-26T03:22:29.478Z,6.21
2023-01-26T03:25:25.207Z,5.89
2023-01-26T03:27:51.615Z,6.38
2023-01-26T03:30:19.251Z,6.46
2023-01-26T03:32:45.683Z,6.71
2023-01-26T03:35:15.245Z,6.47
2023-01-26T03:37:43.684Z,6.20
2023-01-26T03:40:30.641Z,5.51
2023-01-26T03:43:15.455Z,6.01
2023-01-26T03:46:00.548Z,6.40
2023-01-26T03:48:45.691Z,6.57
2023-01-26T03:51:30.572Z,6.53
2023-01-26T03:54:15.569Z,6.10
2023-01-26T03:56:42.042Z,6.04
2023-01-26T03:59:08.601Z,6.25
2023-01-26T04:01:36.858Z,6.55
2023-01-26T04:04:22.058Z,6.59
2023-01-26T04:07:07.462Z,6.41
2023-01-26T04:09:34.227Z,6.41
2023-01-26T04:12:00.622Z,6.59
2023-01-26T04:14:49.828Z,6.74
2023-01-26T04:17:35.997Z,6.14
2023-01-26T04:20:20.784Z,6.23
2023-01-26T04:22:47.138Z,6.16
2023-01-26T04:25:17.695Z,6.05
2023-01-26T04:27:44.272Z,6.40
2023-01-26T04:30:12.330Z,6.74
2023-01-26T04:32:39.114Z,6.97
2023-01-26T04:35:07.609Z,6.32
2023-01-26T04:37:34.089Z,6.85
2023-01-26T04:40:00.773Z,6.79
2023-01-26T04:42:27.551Z,6.57
2023-01-26T04:44:54.455Z,6.84
2023-01-26T04:47:21.436Z,6.43
2023-01-26T04:49:48.276Z,6.85
2023-01-26T04:52:14.999Z,6.92
2023-01-26T04:54:41.552Z,6.64
2023-01-26T04:57:08.562Z,6.66
2023-01-26T04:59:35.099Z,6.51
2023-01-26T05:02:01.475Z,6.28
2023-01-26T05:04:28.350Z,6.33
2023-01-26T05:06:58.525Z,6.41
2023-01-26T05:09:25.156Z,6.47
2023-01-26T05:11:51.587Z,6.11
2023-01-26T05:14:21.576Z,6.37
2023-01-26T05:16:48.307Z,6.68
2023-01-26T05:19:15.282Z,6.39
2023-01-26T05:21:44.367Z,5.97
2023-01-26T05:24:12.382Z,6.50
2023-01-26T05:26:39.205Z,6.67
2023-01-26T05:29:17.888Z,6.37
2023-01-26T05:31:44.240Z,6.68
2023-01-26T05:34:10.701Z,6.50
2023-01-26T05:36:51.349Z,6.72
2023-01-26T05:39:17.711Z,6.91
2023-01-26T05:41:48.636Z,6.94
2023-01-26T05:44:14.929Z,6.91
2023-01-26T05:46:42.633Z,6.92
2023-01-26T05:49:09.025Z,7.25
2023-01-26T05:51:35.364Z,6.90
2023-01-26T05:54:01.677Z,6.65
2023-01-26T05:56:28.220Z,6.49
2023-01-26T05:58:54.528Z,6.59
2023-01-26T06:01:20.983Z,6.46
2023-01-26T06:03:47.374Z,6.79
2023-01-26T06:06:13.673Z,6.77
2023-01-26T06:08:39.987Z,6.91
2023-01-26T06:11:06.379Z,6.63
2023-01-26T06:13:32.685Z,6.84
2023-01-26T06:16:02.502Z,7.01
2023-01-26T06:18:28.810Z,6.71
2023-01-26T06:20:58.316Z,7.08
2023-01-26T06:23:24.635Z,7.03
2023-01-26T06:25:52.091Z,7.03
2023-01-26T06:28:20.090Z,6.69
2023-01-26T06:30:46.554Z,6.73
2023-01-26T06:33:13.022Z,7.00
2023-01-26T06:35:39.334Z,6.63
2023-01-26T06:38:05.754Z,6.65
2023-01-26T06:40:32.152Z,6.73
2023-01-26T06:42:58.484Z,7.15
2023-01-26T06:45:24.825Z,6.81
2023-01-26T06:47:51.379Z,6.68
2023-01-26T06:50:23.074Z,6.87
2023-01-26T06:52:55.767Z,6.92
2023-01-26T06:55:23.858Z,6.99
2023-01-26T06:57:50.154Z,6.90
2023-01-26T07:00:16.858Z,6.68
2023-01-26T07:02:43.246Z,6.66
2023-01-26T07:05:11.131Z,6.36
2023-01-26T07:07:38.322Z,6.86
2023-01-26T07:10:06.747Z,7.30
2023-01-26T07:12:44.511Z,7.40
2023-01-26T07:15:11.714Z,7.00
2023-01-26T07:17:38.974Z,6.86
2023-01-26T07:20:06.105Z,6.55
2023-01-26T07:22:32.444Z,6.90
2023-01-26T07:24:58.768Z,7.18
2023-01-26T07:27:25.075Z,6.55
2023-01-26T07:29:51.559Z,6.68
2023-01-26T07:32:17.927Z,6.94
2023-01-26T07:34:44.235Z,6.81
2023-01-26T07:37:10.570Z,6.78
2023-01-26T07:39:36.898Z,6.84
2023-01-26T07:42:03.270Z,6.91
2023-01-26T07:44:29.585Z,7.06
2023-01-26T07:46:56.037Z,6.96
2023-01-26T07:49:22.415Z,7.34
2023-01-26T07:51:48.775Z,7.23
2023-01-26T07:54:15.095Z,7.40
2023-01-26T07:56:41.483Z,7.41
2023-01-26T07:59:10.297Z,7.58
2023-01-26T08:01:36.622Z,7.61
2023-01-26T08:04:03.250Z,7.42
2023-01-26T08:06:29.565Z,7.20
2023-01-26T08:08:56.035Z,7.34
2023-01-26T08:11:24.264Z,6.77
2023-01-26T08:13:50.665Z,7.20
2023-01-26T08:16:17.072Z,6.63
2023-01-26T08:18:44.426Z,7.58
2023-01-26T08:21:12.020Z,7.52
2023-01-26T08:23:38.492Z,6.96
2023-01-26T08:26:06.141Z,6.53
2023-01-26T08:28:33.037Z,6.25
2023-01-26T08:31:07.210Z,7.06
2023-01-26T08:33:33.997Z,6.59
2023-01-26T08:36:04.597Z,7.09
2023-01-26T08:38:35.203Z,7.49
2023-01-26T08:41:02.300Z,7.56
2023-01-26T08:43:28.924Z,7.36
2023-01-26T08:45:55.348Z,7.50
2023-01-26T08:48:21.988Z,7.63
2023-01-26T08:50:48.356Z,7.63
2023-01-26T08:53:14.719Z,7.76
2023-01-26T08:55:41.106Z,7.93
2023-01-26T08:58:07.467Z,8.06
2023-01-26T09:00:34.167Z,7.85
2023-01-26T09:03:04.849Z,7.95
2023-01-26T09:05:32.394Z,7.92
2023-01-26T09:07:58.790Z,7.97
2023-01-26T09:10:25.527Z,7.88
2023-01-26T09:12:51.861Z,7.62
2023-01-26T09:15:18.302Z,7.92
2023-01-26T09:17:44.700Z,8.03
2023-01-26T09:20:11.858Z,7.29
2023-01-26T09:22:38.387Z,7.28
2023-01-26T09:25:04.942Z,6.56
2023-01-26T09:27:31.332Z,7.19
2023-01-26T09:29:57.771Z,6.57
2023-01-26T09:32:24.135Z,7.22
2023-01-26T09:34:50.458Z,6.94
2023-01-26T09:37:17.472Z,6.96
2023-01-26T09:39:43.920Z,7.40
2023-01-26T09:42:11.128Z,7.64
2023-01-26T09:44:47.947Z,7.72
2023-01-26T09:47:20.112Z,7.82
2023-01-26T09:49:56.765Z,6.36
2023-01-26T09:52:28.224Z,7.26
2023-01-26T09:54:59.502Z,7.82
2023-01-26T09:57:52.224Z,7.34
2023-01-26T10:00:25.151Z,7.65
2023-01-26T10:03:11.071Z,8.16
2023-01-26T10:05:37.355Z,7.81
2023-01-26T10:08:05.250Z,7.36
2023-01-26T10:10:34.821Z,8.08
2023-01-26T10:13:02.008Z,8.00
2023-01-26T10:15:31.238Z,7.88
2023-01-26T10:18:02.534Z,7.93
2023-01-26T10:20:31.861Z,7.78
2023-01-26T10:23:01.100Z,7.85
2023-01-26T10:25:27.515Z,7.70
2023-01-26T10:27:54.504Z,7.15
2023-01-26T10:30:21.529Z,8.14
2023-01-26T10:32:50.917Z,7.96
2023-01-26T10:35:19.819Z,8.09
2023-01-26T10:37:46.946Z,8.44
2023-01-26T10:40:13.939Z,8.43
2023-01-26T10:42:41.047Z,8.11
2023-01-26T10:45:22.657Z,8.62
2023-01-26T10:48:07.859Z,8.15
2023-01-26T10:50:34.328Z,8.10
2023-01-26T10:53:02.026Z,7.95
2023-01-26T10:55:29.348Z,8.47
2023-01-26T10:57:56.132Z,8.74
2023-01-26T11:00:22.738Z,7.72
2023-01-26T11:02:50.751Z,8.53
2023-01-26T11:05:24.501Z,8.46
2023-01-26T11:07:54.205Z,8.57
2023-01-26T11:10:20.935Z,8.21
2023-01-26T11:12:48.114Z,7.49
2023-01-26T11:15:19.559Z,8.29
2023-01-26T11:17:50.445Z,7.78
2023-01-26T11:20:26.711Z,8.24
2023-01-26T11:23:03.082Z,8.42
2023-01-26T11:25:35.335Z,8.67
2023-01-26T11:28:20.342Z,7.81
2023-01-26T11:31:08.021Z,8.40
2023-01-26T11:33:34.331Z,8.67
2023-01-26T11:36:06.459Z,8.34
2023-01-26T11:38:38.430Z,8.77
2023-01-26T11:41:04.950Z,7.65
2023-01-26T11:43:54.749Z,8.81
2023-01-26T11:46:40.045Z,9.02
2023-01-26T11:49:06.334Z,8.31
2023-01-26T11:51:32.844Z,7.95
2023-01-26T11:54:09.021Z,8.42
2023-01-26T11:56:38.574Z,8.53
2023-01-26T11:59:17.042Z,8.95
2023-01-26T12:01:51.902Z,8.52
2023-01-26T12:04:19.899Z,8.50
2023-01-26T12:06:48.428Z,8.28
2023-01-26T12:09:21.433Z,9.16
2023-01-26T12:12:05.683Z,8.34
2023-01-26T12:14:50.068Z,8.47
2023-01-26T12:17:19.647Z,9.07
2023-01-26T12:20:04.561Z,8.50
2023-01-26T12:22:34.348Z,8.85
2023-01-26T12:25:20.474Z,8.34
2023-01-26T12:28:07.298Z,8.77
2023-01-26T12:30:33.764Z,8.43
2023-01-26T12:33:00.492Z,7.75
2023-01-26T12:35:45.379Z,8.70
2023-01-26T12:38:17.961Z,8.32
2023-01-26T12:40:54.767Z,7.47
2023-01-26T12:43:27.665Z,8.51
2023-01-26T12:45:56.051Z,7.96
2023-01-26T12:48:27.873Z,7.37
2023-01-26T12:51:02.128Z,7.46
2023-01-26T12:53:32.185Z,7.69
2023-01-26T12:56:01.592Z,7.42
2023-01-26T12:58:31.653Z,7.22
2023-01-26T13:01:01.218Z,8.06
2023-01-26T13:03:39.517Z,7.11
2023-01-26T13:06:09.086Z,6.14
2023-01-26T13:08:35.530Z,6.82
2023-01-26T13:11:08.931Z,6.13
2023-01-26T13:13:36.263Z,6.65
2023-01-26T13:16:15.118Z,7.47
2023-01-26T13:18:55.619Z,5.89
2023-01-26T13:21:42.753Z,6.83
2023-01-26T13:24:18.307Z,6.84
2023-01-26T13:26:46.090Z,6.73
2023-01-26T13:29:32.709Z,6.46
2023-01-26T13:32:00.740Z,5.98
2023-01-26T13:34:29.393Z,5.99
2023-01-26T13:36:59.945Z,6.11
2023-01-26T13:39:29.129Z,5.93
2023-01-26T13:41:55.438Z,5.99
2023-01-26T13:44:25.867Z,6.58
2023-01-26T13:46:57.167Z,6.24
2023-01-26T13:49:27.857Z,7.09
2023-01-26T13:51:54.387Z,6.79
2023-01-26T13:54:21.597Z,5.81
2023-01-26T13:57:01.538Z,5.97
2023-01-26T13:59:27.888Z,6.25
2023-01-26T14:01:55.525Z,5.20
2023-01-26T14:04:23.119Z,5.65
2023-01-26T14:07:06.919Z,5.75
2023-01-26T14:09:35.049Z,6.13
2023-01-26T14:12:03.387Z,5.84
2023-01-26T14:14:33.023Z,6.07
2023-01-26T14:16:59.855Z,6.23
2023-01-26T14:19:26.827Z,5.89
2023-01-26T14:21:54.697Z,5.25
2023-01-26T14:24:32.304Z,5.31
2023-01-26T14:26:58.691Z,5.31
2023-01-26T14:29:28.741Z,5.30
2023-01-26T14:31:57.805Z,5.50
2023-01-26T14:34:27.909Z,5.25
2023-01-26T14:37:13.835Z,5.45
2023-01-26T14:39:43.053Z,5.74
2023-01-26T14:42:14.453Z,5.99
2023-01-26T14:44:41.013Z,5.67
2023-01-26T14:47:27.997Z,6.05
2023-01-26T14:49:58.878Z,5.86
2023-01-26T14:52:27.124Z,6.17
2023-01-26T14:54:54.776Z,6.22
2023-01-26T14:57:23.775Z,6.17
2023-01-26T14:59:51.652Z,6.18
2023-01-26T15:02:18.297Z,6.34
2023-01-26T15:04:48.170Z,6.59
2023-01-26T15:07:21.873Z,6.53
2023-01-26T15:09:52.022Z,7.26
2023-01-26T15:12:19.811Z,7.01
2023-01-26T15:14:46.730Z,6.85
2023-01-26T15:17:32.088Z,7.32
2023-01-26T15:19:58.623Z,6.61
2023-01-26T15:22:26.304Z,6.42
2023-01-26T15:25:04.769Z,6.80
2023-01-26T15:27:35.381Z,6.92
2023-01-26T15:30:08.582Z,7.66
2023-01-26T15:32:40.455Z,8.00
2023-01-26T15:35:31.043Z,8.70
2023-01-26T15:38:10.825Z,8.41
2023-01-26T15:40:37.684Z,7.78
2023-01-26T15:43:16.543Z,8.29
2023-01-26T15:45:50.901Z,8.70
2023-01-26T15:48:17.956Z,8.73
2023-01-26T15:50:47.811Z,8.60
2023-01-26T15:53:15.258Z,8.26
2023-01-26T15:55:42.266Z,8.15
2023-01-26T15:58:09.219Z,8.51
2023-01-26T16:00:37.235Z,8.13
2023-01-26T16:03:12.705Z,7.66
2023-01-26T16:05:39.204Z,8.12
2023-01-26T16:08:05.938Z,8.23
2023-01-26T16:10:32.613Z,8.47
2023-01-26T16:13:00.468Z,8.55
2023-01-26T16:15:43.686Z,8.54
2023-01-26T16:18:12.760Z,7.93
2023-01-26T16:20:40.359Z,8.01
2023-01-26T16:23:15.456Z,8.07
2023-01-26T16:25:42.697Z,8.19
2023-01-26T16:28:09.755Z,8.41
2023-01-26T16:30:37.050Z,8.41
2023-01-26T16:33:03.950Z,7.74
2023-01-26T16:35:31.061Z,7.71
2023-01-26T16:37:59.173Z,8.11
2023-01-26T16:40:25.941Z,8.40
2023-01-26T16:42:56.773Z,8.53
2023-01-26T16:45:26.974Z,7.37
2023-01-26T16:47:56.515Z,7.78
2023-01-26T16:50:24.027Z,7.21
2023-01-26T16:52:50.973Z,7.33
2023-01-26T16:55:17.998Z,7.54
2023-01-26T16:57:45.234Z,7.37
2023-01-26T17:00:16.679Z,7.42
2023-01-26T17:02:44.590Z,7.28
2023-01-26T17:05:15.368Z,7.10
2023-01-26T17:07:42.143Z,6.72
2023-01-26T17:10:09.904Z,6.72
2023-01-26T17:12:36.693Z,7.15
2023-01-26T17:15:07.023Z,7.13
2023-01-26T17:17:35.718Z,7.26
2023-01-26T17:20:18.060Z,7.38
2023-01-26T17:22:45.966Z,7.58
2023-01-26T17:25:15.310Z,7.66
2023-01-26T17:27:44.082Z,7.75
2023-01-26T17:30:13.024Z,7.52
2023-01-26T17:32:39.395Z,7.97
2023-01-26T17:35:07.277Z,7.70
2023-01-26T17:37:33.797Z,7.66
2023-01-26T17:40:13.922Z,7.48
2023-01-26T17:42:40.332Z,7.59
2023-01-26T17:45:07.944Z,7.92
2023-01-26T17:47:40.448Z,7.83
2023-01-26T17:50:07.195Z,8.54
2023-01-26T17:52:35.421Z,8.63
2023-01-26T17:55:05.216Z,8.63
2023-01-26T17:57:32.408Z,8.78
2023-01-26T17:59:58.966Z,8.58
2023-01-26T18:02:25.584Z,8.95
2023-01-26T18:04:52.101Z,9.16
2023-01-26T18:07:18.564Z,8.63
2023-01-26T18:09:45.054Z,8.71
2023-01-26T18:12:11.374Z,8.96
2023-01-26T18:14:37.884Z,8.79
2023-01-26T18:17:04.321Z,9.12
2023-01-26T18:19:30.825Z,8.95
2023-01-26T18:21:57.233Z,8.84
2023-01-26T18:24:23.671Z,8.63
2023-01-26T18:26:50.521Z,8.08
2023-01-26T18:29:17.092Z,8.22
2023-01-26T18:31:43.688Z,8.57
2023-01-26T18:34:10.512Z,7.57
2023-01-26T18:36:37.027Z,7.25
2023-01-26T18:39:05.155Z,7.77
2023-01-26T18:41:32.867Z,7.83
2023-01-26T18:44:00.153Z,7.18
2023-01-26T18:46:27.386Z,7.32
2023-01-26T18:48:54.570Z,7.79
2023-01-26T18:51:22.896Z,7.65
2023-01-26T18:53:49.607Z,7.61
2023-01-26T18:56:17.462Z,7.72
2023-01-26T18:58:44.325Z,8.12
2023-01-26T19:01:12.568Z,8.40
2023-01-26T19:03:42.456Z,7.95
2023-01-26T19:06:09.409Z,8.46
2023-01-26T19:08:36.754Z,8.02
2023-01-26T19:11:04.697Z,7.66
2023-01-26T19:13:32.231Z,7.56
2023-01-26T19:15:59.359Z,7.92
2023-01-26T19:18:25.903Z,7.79
2023-01-26T19:21:00.122Z,6.96
2023-01-26T19:23:27.996Z,6.47
2023-01-26T19:25:54.782Z,6.96
2023-01-26T19:28:21.709Z,6.81
2023-01-26T19:30:48.704Z,7.30
2023-01-26T19:33:24.386Z,7.13
2023-01-26T19:35:51.663Z,7.03
2023-01-26T19:38:20.397Z,7.35
2023-01-26T19:40:48.328Z,7.22
2023-01-26T19:43:15.955Z,7.32
2023-01-26T19:45:47.808Z,7.32
2023-01-26T19:48:14.894Z,7.44
2023-01-26T19:50:41.827Z,7.56
2023-01-26T19:53:11.509Z,7.68
2023-01-26T19:55:37.974Z,7.71
2023-01-26T19:58:04.906Z,7.70
2023-01-26T20:00:31.635Z,7.77
2023-01-26T20:02:58.416Z,8.19
2023-01-26T20:05:25.420Z,8.21
2023-01-26T20:07:54.842Z,7.57
2023-01-26T20:10:21.604Z,8.11
2023-01-26T20:12:48.126Z,7.71
2023-01-26T20:15:14.988Z,7.79
2023-01-26T20:17:43.016Z,7.91
2023-01-26T20:20:12.174Z,7.20
2023-01-26T20:22:39.601Z,7.35
2023-01-26T20:25:08.085Z,7.38
2023-01-26T20:27:35.059Z,7.52
2023-01-26T20:30:02.011Z,7.46
2023-01-26T20:32:28.672Z,7.15
2023-01-26T20:34:55.499Z,7.24
2023-01-26T20:37:21.996Z,7.74
2023-01-26T20:39:49.534Z,7.46
2023-01-26T20:42:18.595Z,7.01
2023-01-26T20:44:45.120Z,7.66
2023-01-26T20:47:11.964Z,7.57
2023-01-26T20:49:38.513Z,7.45
2023-01-26T20:52:07.631Z,7.76
2023-01-26T20:54:36.095Z,7.98
2023-01-26T20:57:03.620Z,7.62
2023-01-26T20:59:31.028Z,8.20
2023-01-26T21:01:57.840Z,7.65
2023-01-26T21:04:25.044Z,8.05
2023-01-26T21:06:52.360Z,7.66
2023-01-26T21:09:19.159Z,7.61
2023-01-26T21:11:45.992Z,7.75
2023-01-26T21:14:13.713Z,7.57
2023-01-26T21:16:42.158Z,7.71
2023-01-26T21:19:09.626Z,8.01
2023-01-26T21:21:36.279Z,7.88
2023-01-26T21:24:03.001Z,8.16
2023-01-26T21:26:30.124Z,7.78
2023-01-26T21:28:59.198Z,7.43
2023-01-26T21:31:27.300Z,7.47
2023-01-26T21:33:54.380Z,7.70
2023-01-26T21:36:22.627Z,7.94
2023-01-26T21:38:50.933Z,7.93
2023-01-26T21:41:40.793Z,7.86
2023-01-26T21:44:20.807Z,8.11
2023-01-26T21:46:48.100Z,8.11
2023-01-26T21:49:15.027Z,7.90
2023-01-26T21:52:00.446Z,8.00
2023-01-26T21:54:28.106Z,7.66
2023-01-26T21:56:57.975Z,7.70
2023-01-26T21:59:24.837Z,8.28
2023-01-26T22:01:52.485Z,8.09
2023-01-26T22:04:23.670Z,7.95
2023-01-26T22:06:50.595Z,7.62
2023-01-26T22:09:17.976Z,7.67
2023-01-26T22:11:45.034Z,8.04
2023-01-26T22:14:14.016Z,8.31
2023-01-26T22:16:41.103Z,8.10
2023-01-26T22:19:09.060Z,8.00
2023-01-26T22:21:35.991Z,8.40
2023-01-26T22:24:02.939Z,8.14
2023-01-26T22:26:29.678Z,8.62
2023-01-26T22:28:58.182Z,7.97
2023-01-26T22:31:27.321Z,7.84
2023-01-26T22:33:54.925Z,8.04
2023-01-26T22:36:22.523Z,8.05
2023-01-26T22:38:49.481Z,8.50
2023-01-26T22:41:19.776Z,8.27
2023-01-26T22:43:48.242Z,7.84
2023-01-26T22:46:16.065Z,8.37
2023-01-26T22:48:43.040Z,7.70
2023-01-26T22:51:13.607Z,8.05
2023-01-26T22:53:40.683Z,7.79
2023-01-26T22:56:07.789Z,8.11
2023-01-26T22:58:39.649Z,7.83
2023-01-26T23:01:12.366Z,7.56
2023-01-26T23:03:42.072Z,7.73
2023-01-26T23:06:11.018Z,7.76
2023-01-26T23:08:37.559Z,7.80
2023-01-26T23:11:09.440Z,7.97
2023-01-26T23:13:36.122Z,7.60
2023-01-26T23:16:03.106Z,7.67
2023-01-26T23:18:29.913Z,7.65
2023-01-26T23:21:01.539Z,7.70
2023-01-26T23:23:29.793Z,7.68
2023-01-26T23:25:57.737Z,7.68
2023-01-26T23:28:25.413Z,7.44
2023-01-26T23:30:52.647Z,7.38
2023-01-26T23:33:20.329Z,7.50
2023-01-26T23:35:47.704Z,8.12
2023-01-26T23:38:15.005Z,7.68
2023-01-26T23:40:42.959Z,7.88
2023-01-26T23:43:16.722Z,8.24
2023-01-26T23:45:44.593Z,7.69
2023-01-26T23:48:11.531Z,7.67
2023-01-26T23:50:38.166Z,7.76
2023-01-26T23:53:05.032Z,7.67
2023-01-26T23:55:33.211Z,8.29
2023-01-26T23:58:01.043Z,7.88
